sensor_id;sensor_type;location;lat;lon;timestamp;P1;durP1;ratioP1;P2;durP2;ratioP2
26598;SDS011;14240;51.064;16.612;2022-09-14T00:02:04;16.13;;;10.75;;
26598;SDS011;14240;51.064;16.612;2022-09-14T00:04:29;15.00;;;10.75;;
26598;SDS011;14240;51.064;16.612;2022-09-14T00:06:55;22.65;;;11.73;;
26598;SDS011;14240;51.064;16.612;2022-09-14T00:09:21;15.55;;;10.52;;
26598;SDS011;14240;51.064;16.612;2022-09-14T00:11:48;18.00;;;10.75;;
26598;SDS011;14240;51.064;16.612;2022-09-14T00:14:15;15.25;;;11.20;;
26598;SDS011;14240;51.064;16.612;2022-09-14T00:16:41;17.25;;;10.13;;
26598;SDS011;14240;51.064;16.612;2022-09-14T00:19:12;16.02;;;11.13;;
26598;SDS011;14240;51.064;16.612;2022-09-14T00:21:49;16.15;;;10.85;;
26598;SDS011;14240;51.064;16.612;2022-09-14T00:24:17;16.92;;;9.82;;
26598;SDS011;14240;51.064;16.612;2022-09-14T00:26:43;12.80;;;9.38;;
26598;SDS011;14240;51.064;16.612;2022-09-14T00:29:09;14.38;;;9.70;;
26598;SDS011;14240;51.064;16.612;2022-09-14T00:31:35;14.77;;;10.07;;
26598;SDS011;14240;51.064;16.612;2022-09-14T00:34:02;13.77;;;9.90;;
26598;SDS011;14240;51.064;16.612;2022-09-14T00:36:29;13.73;;;9.85;;
26598;SDS011;14240;51.064;16.612;2022-09-14T00:38:57;14.10;;;10.43;;
26598;SDS011;14240;51.064;16.612;2022-09-14T00:41:25;12.85;;;9.75;;
26598;SDS011;14240;51.064;16.612;2022-09-14T00:46:27;15.63;;;10.68;;
26598;SDS011;14240;51.064;16.612;2022-09-14T00:48:55;15.35;;;10.18;;
26598;SDS011;14240;51.064;16.612;2022-09-14T00:51:26;14.60;;;10.25;;
26598;SDS011;14240;51.064;16.612;2022-09-14T00:53:54;16.60;;;10.13;;
26598;SDS011;14240;51.064;16.612;2022-09-14T00:56:19;13.93;;;9.32;;
26598;SDS011;14240;51.064;16.612;2022-09-14T00:58:47;16.02;;;10.00;;
26598;SDS011;14240;51.064;16.612;2022-09-14T01:01:15;18.13;;;10.98;;
26598;SDS011;14240;51.064;16.612;2022-09-14T01:03:41;15.68;;;9.10;;
26598;SDS011;14240;51.064;16.612;2022-09-14T01:11:25;14.55;;;9.80;;
26598;SDS011;14240;51.064;16.612;2022-09-14T01:22:47;11.55;;;8.90;;
26598;SDS011;14240;51.064;16.612;2022-09-14T01:27:58;14.73;;;9.52;;
26598;SDS011;14240;51.064;16.612;2022-09-14T01:30:28;13.30;;;9.23;;
26598;SDS011;14240;51.064;16.612;2022-09-14T01:35:45;14.32;;;8.93;;
26598;SDS011;14240;51.064;16.612;2022-09-14T01:38:21;13.25;;;9.13;;
26598;SDS011;14240;51.064;16.612;2022-09-14T01:40:53;9.90;;;8.10;;
26598;SDS011;14240;51.064;16.612;2022-09-14T01:43:43;16.83;;;9.02;;
26598;SDS011;14240;51.064;16.612;2022-09-14T01:46:13;14.32;;;9.05;;
26598;SDS011;14240;51.064;16.612;2022-09-14T01:48:43;15.50;;;9.02;;
26598;SDS011;14240;51.064;16.612;2022-09-14T01:51:24;14.52;;;9.57;;
26598;SDS011;14240;51.064;16.612;2022-09-14T01:53:54;17.48;;;10.05;;
26598;SDS011;14240;51.064;16.612;2022-09-14T01:56:29;17.85;;;9.95;;
26598;SDS011;14240;51.064;16.612;2022-09-14T01:59:05;14.05;;;9.77;;
26598;SDS011;14240;51.064;16.612;2022-09-14T02:01:39;15.98;;;9.55;;
26598;SDS011;14240;51.064;16.612;2022-09-14T02:04:13;15.35;;;10.52;;
26598;SDS011;14240;51.064;16.612;2022-09-14T02:06:42;15.88;;;10.13;;
26598;SDS011;14240;51.064;16.612;2022-09-14T02:09:12;15.65;;;9.88;;
26598;SDS011;14240;51.064;16.612;2022-09-14T02:11:42;14.48;;;10.27;;
26598;SDS011;14240;51.064;16.612;2022-09-14T02:14:08;16.83;;;10.98;;
26598;SDS011;14240;51.064;16.612;2022-09-14T02:16:34;18.00;;;10.93;;
26598;SDS011;14240;51.064;16.612;2022-09-14T02:18:59;17.30;;;10.60;;
26598;SDS011;14240;51.064;16.612;2022-09-14T02:21:29;20.38;;;11.77;;
26598;SDS011;14240;51.064;16.612;2022-09-14T02:23:59;17.10;;;11.77;;
26598;SDS011;14240;51.064;16.612;2022-09-14T02:26:26;22.98;;;11.77;;
26598;SDS011;14240;51.064;16.612;2022-09-14T02:28:52;20.02;;;12.05;;
26598;SDS011;14240;51.064;16.612;2022-09-14T02:31:32;21.08;;;11.45;;
26598;SDS011;14240;51.064;16.612;2022-09-14T02:36:58;22.60;;;12.07;;
26598;SDS011;14240;51.064;16.612;2022-09-14T02:42:04;24.33;;;13.57;;
26598;SDS011;14240;51.064;16.612;2022-09-14T02:44:39;22.23;;;13.20;;
26598;SDS011;14240;51.064;16.612;2022-09-14T02:47:14;19.65;;;12.52;;
26598;SDS011;14240;51.064;16.612;2022-09-14T02:52:18;22.05;;;13.18;;
26598;SDS011;14240;51.064;16.612;2022-09-14T02:54:52;22.45;;;12.95;;
26598;SDS011;14240;51.064;16.612;2022-09-14T02:57:23;18.70;;;12.38;;
26598;SDS011;14240;51.064;16.612;2022-09-14T02:59:49;20.48;;;12.93;;
26598;SDS011;14240;51.064;16.612;2022-09-14T03:02:17;31.38;;;13.50;;
26598;SDS011;14240;51.064;16.612;2022-09-14T03:04:42;19.98;;;12.88;;
26598;SDS011;14240;51.064;16.612;2022-09-14T03:07:08;21.63;;;14.02;;
26598;SDS011;14240;51.064;16.612;2022-09-14T03:09:34;30.77;;;13.90;;
26598;SDS011;14240;51.064;16.612;2022-09-14T03:11:59;23.30;;;13.82;;
26598;SDS011;14240;51.064;16.612;2022-09-14T03:14:26;19.25;;;12.98;;
26598;SDS011;14240;51.064;16.612;2022-09-14T03:16:51;20.23;;;12.77;;
26598;SDS011;14240;51.064;16.612;2022-09-14T03:19:17;18.15;;;12.77;;
26598;SDS011;14240;51.064;16.612;2022-09-14T03:21:42;17.42;;;12.95;;
26598;SDS011;14240;51.064;16.612;2022-09-14T03:24:08;17.08;;;11.98;;
26598;SDS011;14240;51.064;16.612;2022-09-14T03:26:34;16.98;;;11.70;;
26598;SDS011;14240;51.064;16.612;2022-09-14T03:29:04;18.13;;;12.43;;
26598;SDS011;14240;51.064;16.612;2022-09-14T03:31:30;27.40;;;12.70;;
26598;SDS011;14240;51.064;16.612;2022-09-14T03:33:58;18.45;;;11.50;;
26598;SDS011;14240;51.064;16.612;2022-09-14T03:38:52;17.23;;;10.93;;
26598;SDS011;14240;51.064;16.612;2022-09-14T03:41:19;16.70;;;11.88;;
26598;SDS011;14240;51.064;16.612;2022-09-14T03:43:45;15.53;;;11.43;;
26598;SDS011;14240;51.064;16.612;2022-09-14T03:46:12;16.33;;;10.68;;
26598;SDS011;14240;51.064;16.612;2022-09-14T03:48:40;17.75;;;10.32;;
26598;SDS011;14240;51.064;16.612;2022-09-14T03:51:06;14.27;;;10.55;;
26598;SDS011;14240;51.064;16.612;2022-09-14T03:53:33;15.38;;;9.98;;
26598;SDS011;14240;51.064;16.612;2022-09-14T03:55:59;16.13;;;10.18;;
26598;SDS011;14240;51.064;16.612;2022-09-14T03:58:25;16.98;;;9.88;;
26598;SDS011;14240;51.064;16.612;2022-09-14T04:00:55;16.23;;;11.07;;
26598;SDS011;14240;51.064;16.612;2022-09-14T04:03:21;20.23;;;10.75;;
26598;SDS011;14240;51.064;16.612;2022-09-14T04:05:54;21.80;;;11.32;;
26598;SDS011;14240;51.064;16.612;2022-09-14T04:08:20;16.27;;;10.85;;
26598;SDS011;14240;51.064;16.612;2022-09-14T04:10:46;21.75;;;12.35;;
26598;SDS011;14240;51.064;16.612;2022-09-14T04:13:12;18.38;;;11.25;;
26598;SDS011;14240;51.064;16.612;2022-09-14T04:15:37;19.13;;;11.77;;
26598;SDS011;14240;51.064;16.612;2022-09-14T04:18:03;20.23;;;11.15;;
26598;SDS011;14240;51.064;16.612;2022-09-14T04:20:28;19.55;;;11.38;;
26598;SDS011;14240;51.064;16.612;2022-09-14T04:22:54;17.52;;;12.35;;
26598;SDS011;14240;51.064;16.612;2022-09-14T04:25:20;18.98;;;12.05;;
26598;SDS011;14240;51.064;16.612;2022-09-14T04:27:47;22.98;;;12.90;;
26598;SDS011;14240;51.064;16.612;2022-09-14T04:30:13;19.63;;;11.82;;
26598;SDS011;14240;51.064;16.612;2022-09-14T04:32:39;20.70;;;11.25;;
26598;SDS011;14240;51.064;16.612;2022-09-14T04:35:05;20.00;;;11.55;;
26598;SDS011;14240;51.064;16.612;2022-09-14T04:37:31;23.60;;;12.50;;
26598;SDS011;14240;51.064;16.612;2022-09-14T04:39:57;20.55;;;12.77;;
26598;SDS011;14240;51.064;16.612;2022-09-14T04:42:22;21.67;;;12.85;;
26598;SDS011;14240;51.064;16.612;2022-09-14T04:44:48;19.98;;;13.02;;
26598;SDS011;14240;51.064;16.612;2022-09-14T04:47:14;22.98;;;12.70;;
26598;SDS011;14240;51.064;16.612;2022-09-14T04:49:39;29.80;;;13.27;;
26598;SDS011;14240;51.064;16.612;2022-09-14T04:52:05;24.55;;;13.45;;
26598;SDS011;14240;51.064;16.612;2022-09-14T04:54:30;24.38;;;12.40;;
26598;SDS011;14240;51.064;16.612;2022-09-14T04:56:56;28.77;;;13.38;;
26598;SDS011;14240;51.064;16.612;2022-09-14T04:59:22;17.98;;;11.75;;
26598;SDS011;14240;51.064;16.612;2022-09-14T05:34:55;21.48;;;13.82;;
26598;SDS011;14240;51.064;16.612;2022-09-14T05:37:21;20.40;;;13.82;;
26598;SDS011;14240;51.064;16.612;2022-09-14T05:39:46;19.55;;;12.98;;
26598;SDS011;14240;51.064;16.612;2022-09-14T05:42:12;19.23;;;12.95;;
26598;SDS011;14240;51.064;16.612;2022-09-14T05:44:37;24.58;;;13.80;;
26598;SDS011;14240;51.064;16.612;2022-09-14T05:47:03;19.27;;;13.30;;
26598;SDS011;14240;51.064;16.612;2022-09-14T05:49:28;21.10;;;14.25;;
26598;SDS011;14240;51.064;16.612;2022-09-14T05:51:54;20.15;;;12.65;;
26598;SDS011;14240;51.064;16.612;2022-09-14T05:54:20;19.13;;;13.07;;
26598;SDS011;14240;51.064;16.612;2022-09-14T05:56:45;22.05;;;13.65;;
26598;SDS011;14240;51.064;16.612;2022-09-14T05:59:11;21.85;;;13.80;;
26598;SDS011;14240;51.064;16.612;2022-09-14T06:01:36;25.33;;;14.40;;
26598;SDS011;14240;51.064;16.612;2022-09-14T06:04:02;37.90;;;15.15;;
26598;SDS011;14240;51.064;16.612;2022-09-14T06:06:28;20.90;;;13.23;;
26598;SDS011;14240;51.064;16.612;2022-09-14T06:08:55;19.30;;;13.18;;
26598;SDS011;14240;51.064;16.612;2022-09-14T06:11:24;24.60;;;14.13;;
26598;SDS011;14240;51.064;16.612;2022-09-14T06:13:52;26.58;;;14.43;;
26598;SDS011;14240;51.064;16.612;2022-09-14T06:16:19;60.08;;;37.85;;
26598;SDS011;14240;51.064;16.612;2022-09-14T06:18:46;20.45;;;15.82;;
26598;SDS011;14240;51.064;16.612;2022-09-14T06:21:13;17.20;;;13.18;;
26598;SDS011;14240;51.064;16.612;2022-09-14T06:23:40;21.38;;;14.48;;
26598;SDS011;14240;51.064;16.612;2022-09-14T06:26:07;22.73;;;14.52;;
26598;SDS011;14240;51.064;16.612;2022-09-14T06:28:34;20.60;;;14.98;;
26598;SDS011;14240;51.064;16.612;2022-09-14T06:31:00;20.20;;;14.50;;
26598;SDS011;14240;51.064;16.612;2022-09-14T06:33:28;23.30;;;14.68;;
26598;SDS011;14240;51.064;16.612;2022-09-14T06:38:21;25.05;;;14.75;;
26598;SDS011;14240;51.064;16.612;2022-09-14T06:40:53;21.48;;;13.75;;
26598;SDS011;14240;51.064;16.612;2022-09-14T06:43:21;21.67;;;15.02;;
26598;SDS011;14240;51.064;16.612;2022-09-14T06:46:04;19.85;;;13.68;;
26598;SDS011;14240;51.064;16.612;2022-09-14T06:48:35;21.02;;;15.45;;
26598;SDS011;14240;51.064;16.612;2022-09-14T06:51:12;19.70;;;13.43;;
26598;SDS011;14240;51.064;16.612;2022-09-14T06:53:43;17.60;;;13.13;;
26598;SDS011;14240;51.064;16.612;2022-09-14T06:56:10;19.92;;;12.52;;
26598;SDS011;14240;51.064;16.612;2022-09-14T06:58:36;16.33;;;13.18;;
26598;SDS011;14240;51.064;16.612;2022-09-14T07:01:09;16.63;;;13.27;;
26598;SDS011;14240;51.064;16.612;2022-09-14T07:03:36;21.90;;;12.95;;
26598;SDS011;14240;51.064;16.612;2022-09-14T07:06:04;18.48;;;12.52;;
26598;SDS011;14240;51.064;16.612;2022-09-14T07:08:32;21.88;;;13.52;;
26598;SDS011;14240;51.064;16.612;2022-09-14T07:10:58;19.23;;;13.00;;
26598;SDS011;14240;51.064;16.612;2022-09-14T07:13:24;19.60;;;13.38;;
26598;SDS011;14240;51.064;16.612;2022-09-14T07:15:51;24.90;;;13.87;;
26598;SDS011;14240;51.064;16.612;2022-09-14T07:18:17;20.40;;;13.02;;
26598;SDS011;14240;51.064;16.612;2022-09-14T07:20:42;20.10;;;13.35;;
26598;SDS011;14240;51.064;16.612;2022-09-14T07:23:08;21.30;;;13.50;;
26598;SDS011;14240;51.064;16.612;2022-09-14T07:25:34;19.50;;;14.02;;
26598;SDS011;14240;51.064;16.612;2022-09-14T07:27:59;21.10;;;13.65;;
26598;SDS011;14240;51.064;16.612;2022-09-14T07:30:25;18.38;;;13.35;;
26598;SDS011;14240;51.064;16.612;2022-09-14T07:32:52;19.88;;;13.88;;
26598;SDS011;14240;51.064;16.612;2022-09-14T07:35:18;21.02;;;14.20;;
26598;SDS011;14240;51.064;16.612;2022-09-14T07:37:44;18.50;;;13.85;;
26598;SDS011;14240;51.064;16.612;2022-09-14T07:40:10;18.48;;;12.00;;
26598;SDS011;14240;51.064;16.612;2022-09-14T07:42:36;22.35;;;13.43;;
26598;SDS011;14240;51.064;16.612;2022-09-14T07:45:02;19.40;;;12.80;;
26598;SDS011;14240;51.064;16.612;2022-09-14T07:47:29;17.10;;;12.95;;
26598;SDS011;14240;51.064;16.612;2022-09-14T07:49:55;18.48;;;12.02;;
26598;SDS011;14240;51.064;16.612;2022-09-14T07:52:20;18.27;;;11.88;;
26598;SDS011;14240;51.064;16.612;2022-09-14T07:54:46;21.10;;;11.43;;
26598;SDS011;14240;51.064;16.612;2022-09-14T07:57:11;19.40;;;12.65;;
26598;SDS011;14240;51.064;16.612;2022-09-14T07:59:37;20.92;;;11.65;;
26598;SDS011;14240;51.064;16.612;2022-09-14T08:02:05;17.42;;;11.95;;
26598;SDS011;14240;51.064;16.612;2022-09-14T08:04:32;16.42;;;12.25;;
26598;SDS011;14240;51.064;16.612;2022-09-14T08:06:59;18.30;;;12.60;;
26598;SDS011;14240;51.064;16.612;2022-09-14T08:09:26;18.90;;;11.98;;
26598;SDS011;14240;51.064;16.612;2022-09-14T08:11:51;17.08;;;12.07;;
26598;SDS011;14240;51.064;16.612;2022-09-14T08:14:17;16.23;;;11.15;;
26598;SDS011;14240;51.064;16.612;2022-09-14T08:16:43;17.42;;;12.57;;
26598;SDS011;14240;51.064;16.612;2022-09-14T08:19:13;19.70;;;12.90;;
26598;SDS011;14240;51.064;16.612;2022-09-14T08:21:45;17.88;;;11.52;;
26598;SDS011;14240;51.064;16.612;2022-09-14T08:24:11;19.27;;;11.90;;
26598;SDS011;14240;51.064;16.612;2022-09-14T08:26:38;18.80;;;12.13;;
26598;SDS011;14240;51.064;16.612;2022-09-14T08:29:04;18.30;;;12.38;;
26598;SDS011;14240;51.064;16.612;2022-09-14T08:31:34;19.48;;;12.38;;
26598;SDS011;14240;51.064;16.612;2022-09-14T08:34:02;18.40;;;12.77;;
26598;SDS011;14240;51.064;16.612;2022-09-14T08:36:29;19.40;;;11.93;;
26598;SDS011;14240;51.064;16.612;2022-09-14T08:38:57;18.13;;;11.90;;
26598;SDS011;14240;51.064;16.612;2022-09-14T08:44:17;16.67;;;11.60;;
26598;SDS011;14240;51.064;16.612;2022-09-14T08:54:41;16.65;;;9.77;;
26598;SDS011;14240;51.064;16.612;2022-09-14T08:57:18;19.33;;;10.48;;
26598;SDS011;14240;51.064;16.612;2022-09-14T09:00:11;17.90;;;10.10;;
26598;SDS011;14240;51.064;16.612;2022-09-14T09:06:10;19.65;;;10.70;;
26598;SDS011;14240;51.064;16.612;2022-09-14T09:08:17;15.45;;;8.07;;
26598;SDS011;14240;51.064;16.612;2022-09-14T09:10:44;18.30;;;8.27;;
26598;SDS011;14240;51.064;16.612;2022-09-14T09:15:52;13.45;;;7.95;;
26598;SDS011;14240;51.064;16.612;2022-09-14T09:21:17;13.70;;;7.95;;
26598;SDS011;14240;51.064;16.612;2022-09-14T09:23:42;13.82;;;7.32;;
26598;SDS011;14240;51.064;16.612;2022-09-14T09:28:42;11.52;;;7.28;;
26598;SDS011;14240;51.064;16.612;2022-09-14T09:31:14;10.30;;;6.88;;
26598;SDS011;14240;51.064;16.612;2022-09-14T09:36:07;15.20;;;8.57;;
26598;SDS011;14240;51.064;16.612;2022-09-14T09:38:37;15.50;;;7.93;;
26598;SDS011;14240;51.064;16.612;2022-09-14T09:41:11;11.35;;;8.68;;
26598;SDS011;14240;51.064;16.612;2022-09-14T09:46:26;13.43;;;8.25;;
26598;SDS011;14240;51.064;16.612;2022-09-14T09:48:54;14.63;;;8.38;;
26598;SDS011;14240;51.064;16.612;2022-09-14T09:53:53;11.68;;;7.47;;
26598;SDS011;14240;51.064;16.612;2022-09-14T09:56:28;10.85;;;8.02;;
26598;SDS011;14240;51.064;16.612;2022-09-14T09:59:03;10.52;;;6.78;;
26598;SDS011;14240;51.064;16.612;2022-09-14T10:01:56;13.98;;;7.97;;
26598;SDS011;14240;51.064;16.612;2022-09-14T10:07:33;13.10;;;8.75;;
26598;SDS011;14240;51.064;16.612;2022-09-14T10:10:18;12.65;;;8.50;;
26598;SDS011;14240;51.064;16.612;2022-09-14T10:12:48;15.95;;;9.15;;
26598;SDS011;14240;51.064;16.612;2022-09-14T10:15:23;12.45;;;8.50;;
26598;SDS011;14240;51.064;16.612;2022-09-14T10:17:54;12.50;;;8.23;;
26598;SDS011;14240;51.064;16.612;2022-09-14T10:20:24;13.07;;;8.43;;
26598;SDS011;14240;51.064;16.612;2022-09-14T10:22:50;15.20;;;8.15;;
26598;SDS011;14240;51.064;16.612;2022-09-14T10:27:48;17.38;;;7.50;;
26598;SDS011;14240;51.064;16.612;2022-09-14T10:30:22;15.48;;;8.30;;
26598;SDS011;14240;51.064;16.612;2022-09-14T10:32:54;22.83;;;10.02;;
26598;SDS011;14240;51.064;16.612;2022-09-14T10:35:46;13.75;;;8.48;;
26598;SDS011;14240;51.064;16.612;2022-09-14T10:41:06;11.80;;;8.00;;
26598;SDS011;14240;51.064;16.612;2022-09-14T10:52:49;14.95;;;8.65;;
26598;SDS011;14240;51.064;16.612;2022-09-14T11:07:05;15.48;;;8.40;;
26598;SDS011;14240;51.064;16.612;2022-09-14T11:12:35;14.75;;;8.93;;
26598;SDS011;14240;51.064;16.612;2022-09-14T11:15:13;17.27;;;9.13;;
26598;SDS011;14240;51.064;16.612;2022-09-14T11:20:45;16.95;;;8.95;;
26598;SDS011;14240;51.064;16.612;2022-09-14T11:25:56;14.40;;;9.15;;
26598;SDS011;14240;51.064;16.612;2022-09-14T11:28:42;20.08;;;9.65;;
26598;SDS011;14240;51.064;16.612;2022-09-14T11:31:18;15.15;;;9.52;;
26598;SDS011;14240;51.064;16.612;2022-09-14T11:33:46;18.60;;;10.00;;
26598;SDS011;14240;51.064;16.612;2022-09-14T11:39:38;17.30;;;9.70;;
26598;SDS011;14240;51.064;16.612;2022-09-14T11:41:48;16.67;;;9.45;;
26598;SDS011;14240;51.064;16.612;2022-09-14T11:44:30;17.85;;;10.55;;
26598;SDS011;14240;51.064;16.612;2022-09-14T11:47:02;16.48;;;10.07;;
26598;SDS011;14240;51.064;16.612;2022-09-14T11:52:39;13.85;;;8.48;;
26598;SDS011;14240;51.064;16.612;2022-09-14T11:55:07;14.27;;;9.13;;
26598;SDS011;14240;51.064;16.612;2022-09-14T11:57:35;13.90;;;8.38;;
26598;SDS011;14240;51.064;16.612;2022-09-14T12:00:40;15.10;;;8.80;;
26598;SDS011;14240;51.064;16.612;2022-09-14T12:03:11;15.80;;;10.73;;
26598;SDS011;14240;51.064;16.612;2022-09-14T12:05:45;15.52;;;10.75;;
26598;SDS011;14240;51.064;16.612;2022-09-14T12:10:57;17.73;;;9.85;;
26598;SDS011;14240;51.064;16.612;2022-09-14T12:13:24;14.35;;;9.50;;
26598;SDS011;14240;51.064;16.612;2022-09-14T12:15:59;15.77;;;9.77;;
26598;SDS011;14240;51.064;16.612;2022-09-14T12:18:26;18.95;;;9.85;;
26598;SDS011;14240;51.064;16.612;2022-09-14T12:21:03;14.95;;;9.00;;
26598;SDS011;14240;51.064;16.612;2022-09-14T12:23:31;18.33;;;9.57;;
26598;SDS011;14240;51.064;16.612;2022-09-14T12:38:42;15.77;;;11.40;;
26598;SDS011;14240;51.064;16.612;2022-09-14T12:43:52;17.65;;;11.80;;
26598;SDS011;14240;51.064;16.612;2022-09-14T12:54:41;20.17;;;12.30;;
26598;SDS011;14240;51.064;16.612;2022-09-14T12:59:43;19.65;;;12.15;;
26598;SDS011;14240;51.064;16.612;2022-09-14T13:04:51;17.50;;;12.07;;
26598;SDS011;14240;51.064;16.612;2022-09-14T13:07:19;15.13;;;11.30;;
26598;SDS011;14240;51.064;16.612;2022-09-14T13:09:49;20.27;;;11.30;;
26598;SDS011;14240;51.064;16.612;2022-09-14T13:13:11;18.48;;;13.10;;
26598;SDS011;14240;51.064;16.612;2022-09-14T13:15:17;16.48;;;12.07;;
26598;SDS011;14240;51.064;16.612;2022-09-14T13:18:03;19.40;;;13.88;;
26598;SDS011;14240;51.064;16.612;2022-09-14T13:22:57;15.60;;;12.13;;
26598;SDS011;14240;51.064;16.612;2022-09-14T13:25:33;18.23;;;12.68;;
26598;SDS011;14240;51.064;16.612;2022-09-14T13:28:02;19.42;;;12.95;;
26598;SDS011;14240;51.064;16.612;2022-09-14T13:30:30;16.73;;;11.20;;
26598;SDS011;14240;51.064;16.612;2022-09-14T13:32:56;17.98;;;13.15;;
26598;SDS011;14240;51.064;16.612;2022-09-14T13:35:26;20.73;;;13.10;;
26598;SDS011;14240;51.064;16.612;2022-09-14T13:37:56;16.48;;;11.65;;
26598;SDS011;14240;51.064;16.612;2022-09-14T13:40:24;20.88;;;13.55;;
26598;SDS011;14240;51.064;16.612;2022-09-14T13:42:52;18.33;;;12.35;;
26598;SDS011;14240;51.064;16.612;2022-09-14T13:45:18;17.75;;;13.18;;
26598;SDS011;14240;51.064;16.612;2022-09-14T13:47:45;18.13;;;13.02;;
26598;SDS011;14240;51.064;16.612;2022-09-14T13:50:11;19.23;;;12.80;;
26598;SDS011;14240;51.064;16.612;2022-09-14T13:52:38;30.15;;;13.82;;
26598;SDS011;14240;51.064;16.612;2022-09-14T14:00:29;20.10;;;11.63;;
26598;SDS011;14240;51.064;16.612;2022-09-14T14:03:02;22.30;;;13.13;;
26598;SDS011;14240;51.064;16.612;2022-09-14T14:05:32;19.88;;;12.50;;
26598;SDS011;14240;51.064;16.612;2022-09-14T14:08:04;18.08;;;12.57;;
26598;SDS011;14240;51.064;16.612;2022-09-14T14:10:50;18.23;;;12.65;;
26598;SDS011;14240;51.064;16.612;2022-09-14T14:15:50;19.95;;;13.43;;
26598;SDS011;14240;51.064;16.612;2022-09-14T14:21:09;19.30;;;13.18;;
26598;SDS011;14240;51.064;16.612;2022-09-14T14:23:38;20.88;;;12.68;;
26598;SDS011;14240;51.064;16.612;2022-09-14T14:26:08;18.33;;;12.02;;
26598;SDS011;14240;51.064;16.612;2022-09-14T14:28:40;17.73;;;11.93;;
26598;SDS011;14240;51.064;16.612;2022-09-14T14:31:16;19.20;;;12.52;;
26598;SDS011;14240;51.064;16.612;2022-09-14T14:33:52;16.27;;;11.65;;
26598;SDS011;14240;51.064;16.612;2022-09-14T14:36:19;18.10;;;13.68;;
26598;SDS011;14240;51.064;16.612;2022-09-14T14:38:45;15.93;;;12.10;;
26598;SDS011;14240;51.064;16.612;2022-09-14T14:41:13;23.10;;;13.48;;
26598;SDS011;14240;51.064;16.612;2022-09-14T14:43:41;19.08;;;13.57;;
26598;SDS011;14240;51.064;16.612;2022-09-14T14:46:10;17.52;;;11.93;;
26598;SDS011;14240;51.064;16.612;2022-09-14T14:48:36;19.77;;;13.93;;
26598;SDS011;14240;51.064;16.612;2022-09-14T14:51:02;17.92;;;13.68;;
26598;SDS011;14240;51.064;16.612;2022-09-14T14:53:28;17.27;;;12.15;;
26598;SDS011;14240;51.064;16.612;2022-09-14T14:55:53;18.92;;;12.10;;
26598;SDS011;14240;51.064;16.612;2022-09-14T14:58:19;13.60;;;10.77;;
26598;SDS011;14240;51.064;16.612;2022-09-14T15:00:46;19.40;;;11.30;;
26598;SDS011;14240;51.064;16.612;2022-09-14T15:03:12;19.17;;;12.40;;
26598;SDS011;14240;51.064;16.612;2022-09-14T15:05:42;17.25;;;11.60;;
26598;SDS011;14240;51.064;16.612;2022-09-14T15:08:09;20.75;;;13.00;;
26598;SDS011;14240;51.064;16.612;2022-09-14T15:10:36;17.55;;;12.25;;
26598;SDS011;14240;51.064;16.612;2022-09-14T15:13:03;16.48;;;11.40;;
26598;SDS011;14240;51.064;16.612;2022-09-14T15:15:30;16.70;;;12.23;;
26598;SDS011;14240;51.064;16.612;2022-09-14T15:17:56;21.10;;;14.95;;
26598;SDS011;14240;51.064;16.612;2022-09-14T15:20:22;19.60;;;13.25;;
26598;SDS011;14240;51.064;16.612;2022-09-14T15:22:48;17.77;;;13.10;;
26598;SDS011;14240;51.064;16.612;2022-09-14T15:25:14;23.20;;;12.95;;
26598;SDS011;14240;51.064;16.612;2022-09-14T15:27:41;19.25;;;13.80;;
26598;SDS011;14240;51.064;16.612;2022-09-14T15:30:08;21.58;;;14.10;;
26598;SDS011;14240;51.064;16.612;2022-09-14T15:32:35;18.77;;;13.63;;
26598;SDS011;14240;51.064;16.612;2022-09-14T15:35:01;25.77;;;13.77;;
26598;SDS011;14240;51.064;16.612;2022-09-14T15:37:27;18.38;;;13.32;;
26598;SDS011;14240;51.064;16.612;2022-09-14T15:39:52;18.63;;;15.00;;
26598;SDS011;14240;51.064;16.612;2022-09-14T15:42:18;20.20;;;13.90;;
26598;SDS011;14240;51.064;16.612;2022-09-14T15:44:45;18.50;;;13.93;;
26598;SDS011;14240;51.064;16.612;2022-09-14T15:47:11;20.98;;;15.32;;
26598;SDS011;14240;51.064;16.612;2022-09-14T15:49:40;19.55;;;14.85;;
26598;SDS011;14240;51.064;16.612;2022-09-14T15:52:07;20.42;;;14.55;;
26598;SDS011;14240;51.064;16.612;2022-09-14T15:54:34;23.70;;;15.05;;
26598;SDS011;14240;51.064;16.612;2022-09-14T15:57:01;18.67;;;15.13;;
26598;SDS011;14240;51.064;16.612;2022-09-14T15:59:28;21.17;;;16.42;;
26598;SDS011;14240;51.064;16.612;2022-09-14T16:01:54;25.33;;;16.80;;
26598;SDS011;14240;51.064;16.612;2022-09-14T16:04:20;24.45;;;17.05;;
26598;SDS011;14240;51.064;16.612;2022-09-14T16:06:47;25.80;;;17.65;;
26598;SDS011;14240;51.064;16.612;2022-09-14T16:09:13;26.75;;;17.33;;
26598;SDS011;14240;51.064;16.612;2022-09-14T16:11:40;26.90;;;16.73;;
26598;SDS011;14240;51.064;16.612;2022-09-14T16:14:06;27.05;;;18.00;;
26598;SDS011;14240;51.064;16.612;2022-09-14T16:16:34;23.23;;;16.73;;
26598;SDS011;14240;51.064;16.612;2022-09-14T16:19:07;25.00;;;17.73;;
26598;SDS011;14240;51.064;16.612;2022-09-14T16:21:36;26.50;;;17.05;;
26598;SDS011;14240;51.064;16.612;2022-09-14T16:24:04;30.45;;;19.05;;
26598;SDS011;14240;51.064;16.612;2022-09-14T16:26:32;25.77;;;18.27;;
26598;SDS011;14240;51.064;16.612;2022-09-14T16:29:00;37.00;;;19.15;;
26598;SDS011;14240;51.064;16.612;2022-09-14T16:31:30;27.77;;;17.73;;
26598;SDS011;14240;51.064;16.612;2022-09-14T16:33:59;29.65;;;18.88;;
26598;SDS011;14240;51.064;16.612;2022-09-14T16:36:29;32.25;;;20.25;;
26598;SDS011;14240;51.064;16.612;2022-09-14T16:38:57;33.03;;;18.52;;
26598;SDS011;14240;51.064;16.612;2022-09-14T16:43:54;28.38;;;19.05;;
26598;SDS011;14240;51.064;16.612;2022-09-14T16:46:21;32.45;;;20.52;;
26598;SDS011;14240;51.064;16.612;2022-09-14T16:48:47;30.55;;;19.88;;
26598;SDS011;14240;51.064;16.612;2022-09-14T16:51:14;32.45;;;20.23;;
26598;SDS011;14240;51.064;16.612;2022-09-14T16:53:41;29.67;;;20.17;;
26598;SDS011;14240;51.064;16.612;2022-09-14T16:56:13;29.70;;;18.92;;
26598;SDS011;14240;51.064;16.612;2022-09-14T16:58:40;30.10;;;19.38;;
26598;SDS011;14240;51.064;16.612;2022-09-14T17:01:11;37.45;;;21.98;;
26598;SDS011;14240;51.064;16.612;2022-09-14T17:03:37;29.38;;;19.85;;
26598;SDS011;14240;51.064;16.612;2022-09-14T17:06:05;28.67;;;20.08;;
26598;SDS011;14240;51.064;16.612;2022-09-14T17:08:32;27.38;;;18.33;;
26598;SDS011;14240;51.064;16.612;2022-09-14T17:10:59;32.97;;;19.60;;
26598;SDS011;14240;51.064;16.612;2022-09-14T17:13:26;32.70;;;21.05;;
26598;SDS011;14240;51.064;16.612;2022-09-14T17:15:52;33.72;;;21.20;;
26598;SDS011;14240;51.064;16.612;2022-09-14T17:18:28;32.97;;;21.40;;
26598;SDS011;14240;51.064;16.612;2022-09-14T17:21:04;32.80;;;21.40;;
26598;SDS011;14240;51.064;16.612;2022-09-14T17:23:32;33.97;;;22.02;;
26598;SDS011;14240;51.064;16.612;2022-09-14T17:25:58;35.70;;;22.83;;
26598;SDS011;14240;51.064;16.612;2022-09-14T17:28:25;31.85;;;22.80;;
26598;SDS011;14240;51.064;16.612;2022-09-14T17:30:53;33.15;;;21.13;;